sensor_id;sensor_type;location;lat;lon;timestamp;P1;durP1;ratioP1;P2;durP2;ratioP2
70303;SDS011;57712;48.752;11.348;2022-07-21T00:01:57;6.57;;;2.92;;
70303;SDS011;57712;48.752;11.348;2022-07-21T00:04:24;6.57;;;3.08;;
70303;SDS011;57712;48.752;11.348;2022-07-21T00:06:51;6.65;;;3.10;;
70303;SDS011;57712;48.752;11.348;2022-07-21T00:09:17;10.32;;;3.58;;
70303;SDS011;57712;48.752;11.348;2022-07-21T00:11:44;7.97;;;3.30;;
70303;SDS011;57712;48.752;11.348;2022-07-21T00:14:11;6.22;;;3.05;;
70303;SDS011;57712;48.752;11.348;2022-07-21T00:16:38;5.80;;;3.10;;
70303;SDS011;57712;48.752;11.348;2022-07-21T00:19:06;6.82;;;3.60;;
70303;SDS011;57712;48.752;11.348;2022-07-21T00:21:33;5.93;;;3.35;;
70303;SDS011;57712;48.752;11.348;2022-07-21T00:24:00;5.90;;;3.93;;
70303;SDS011;57712;48.752;11.348;2022-07-21T00:26:27;7.80;;;4.00;;
70303;SDS011;57712;48.752;11.348;2022-07-21T00:28:53;6.43;;;3.60;;
70303;SDS011;57712;48.752;11.348;2022-07-21T00:31:21;7.57;;;3.45;;
70303;SDS011;57712;48.752;11.348;2022-07-21T00:33:47;6.43;;;3.65;;
70303;SDS011;57712;48.752;11.348;2022-07-21T00:36:18;9.43;;;3.60;;
70303;SDS011;57712;48.752;11.348;2022-07-21T00:38:45;12.15;;;3.63;;
70303;SDS011;57712;48.752;11.348;2022-07-21T00:41:13;7.35;;;4.55;;
70303;SDS011;57712;48.752;11.348;2022-07-21T00:43:40;11.80;;;4.55;;
70303;SDS011;57712;48.752;11.348;2022-07-21T00:46:06;6.70;;;4.38;;
70303;SDS011;57712;48.752;11.348;2022-07-21T00:48:33;7.63;;;3.87;;
70303;SDS011;57712;48.752;11.348;2022-07-21T00:51:00;7.93;;;3.83;;
70303;SDS011;57712;48.752;11.348;2022-07-21T00:53:27;9.65;;;4.40;;
70303;SDS011;57712;48.752;11.348;2022-07-21T00:55:53;6.72;;;4.03;;
70303;SDS011;57712;48.752;11.348;2022-07-21T00:58:20;8.80;;;3.70;;
70303;SDS011;57712;48.752;11.348;2022-07-21T01:00:49;8.13;;;4.00;;
70303;SDS011;57712;48.752;11.348;2022-07-21T01:03:16;7.28;;;3.75;;
70303;SDS011;57712;48.752;11.348;2022-07-21T01:05:42;7.45;;;4.25;;
70303;SDS011;57712;48.752;11.348;2022-07-21T01:08:09;6.97;;;3.95;;
70303;SDS011;57712;48.752;11.348;2022-07-21T01:10:36;7.80;;;3.80;;
70303;SDS011;57712;48.752;11.348;2022-07-21T01:13:03;6.23;;;3.53;;
70303;SDS011;57712;48.752;11.348;2022-07-21T01:15:29;5.93;;;3.50;;
70303;SDS011;57712;48.752;11.348;2022-07-21T01:17:56;7.15;;;4.18;;
70303;SDS011;57712;48.752;11.348;2022-07-21T01:20:23;7.20;;;3.45;;
70303;SDS011;57712;48.752;11.348;2022-07-21T01:22:52;6.97;;;4.13;;
70303;SDS011;57712;48.752;11.348;2022-07-21T01:25:22;8.80;;;3.73;;
70303;SDS011;57712;48.752;11.348;2022-07-21T01:27:49;6.28;;;3.95;;
70303;SDS011;57712;48.752;11.348;2022-07-21T01:30:16;7.40;;;4.05;;
70303;SDS011;57712;48.752;11.348;2022-07-21T01:32:43;7.35;;;3.70;;
70303;SDS011;57712;48.752;11.348;2022-07-21T01:35:12;6.03;;;3.80;;
70303;SDS011;57712;48.752;11.348;2022-07-21T01:37:41;7.30;;;3.57;;
70303;SDS011;57712;48.752;11.348;2022-07-21T01:40:10;6.47;;;3.83;;
70303;SDS011;57712;48.752;11.348;2022-07-21T01:42:56;7.35;;;3.95;;
70303;SDS011;57712;48.752;11.348;2022-07-21T01:45:25;6.43;;;3.90;;
70303;SDS011;57712;48.752;11.348;2022-07-21T01:47:52;7.55;;;3.65;;
70303;SDS011;57712;48.752;11.348;2022-07-21T01:50:18;7.77;;;4.30;;
70303;SDS011;57712;48.752;11.348;2022-07-21T01:52:47;8.05;;;3.92;;
70303;SDS011;57712;48.752;11.348;2022-07-21T01:55:14;8.23;;;4.05;;
70303;SDS011;57712;48.752;11.348;2022-07-21T01:57:40;7.55;;;3.90;;
70303;SDS011;57712;48.752;11.348;2022-07-21T02:00:07;7.18;;;3.90;;
70303;SDS011;57712;48.752;11.348;2022-07-21T02:02:34;6.70;;;3.53;;
70303;SDS011;57712;48.752;11.348;2022-07-21T02:05:01;7.50;;;3.88;;
70303;SDS011;57712;48.752;11.348;2022-07-21T02:07:28;7.20;;;4.47;;
70303;SDS011;57712;48.752;11.348;2022-07-21T02:09:54;7.43;;;3.90;;
70303;SDS011;57712;48.752;11.348;2022-07-21T02:12:21;7.43;;;4.10;;
70303;SDS011;57712;48.752;11.348;2022-07-21T02:14:48;6.93;;;3.83;;
70303;SDS011;57712;48.752;11.348;2022-07-21T02:17:14;7.47;;;4.18;;
70303;SDS011;57712;48.752;11.348;2022-07-21T02:19:41;7.57;;;4.47;;
70303;SDS011;57712;48.752;11.348;2022-07-21T02:22:07;7.13;;;4.35;;
70303;SDS011;57712;48.752;11.348;2022-07-21T02:24:34;6.68;;;4.15;;
70303;SDS011;57712;48.752;11.348;2022-07-21T02:27:01;6.90;;;4.40;;
70303;SDS011;57712;48.752;11.348;2022-07-21T02:29:28;6.82;;;4.40;;
70303;SDS011;57712;48.752;11.348;2022-07-21T02:31:55;7.50;;;4.88;;
70303;SDS011;57712;48.752;11.348;2022-07-21T02:34:21;7.57;;;4.43;;
70303;SDS011;57712;48.752;11.348;2022-07-21T02:36:48;7.85;;;4.55;;
70303;SDS011;57712;48.752;11.348;2022-07-21T02:39:14;6.77;;;4.27;;
70303;SDS011;57712;48.752;11.348;2022-07-21T02:41:42;7.10;;;4.20;;
70303;SDS011;57712;48.752;11.348;2022-07-21T02:44:08;7.60;;;5.60;;
70303;SDS011;57712;48.752;11.348;2022-07-21T02:46:35;8.90;;;4.68;;
70303;SDS011;57712;48.752;11.348;2022-07-21T02:49:01;7.65;;;4.85;;
70303;SDS011;57712;48.752;11.348;2022-07-21T02:51:28;7.90;;;4.80;;
70303;SDS011;57712;48.752;11.348;2022-07-21T02:53:54;7.45;;;4.82;;
70303;SDS011;57712;48.752;11.348;2022-07-21T02:56:21;9.82;;;4.95;;
70303;SDS011;57712;48.752;11.348;2022-07-21T02:58:47;7.32;;;4.72;;
70303;SDS011;57712;48.752;11.348;2022-07-21T03:01:14;8.55;;;5.43;;
70303;SDS011;57712;48.752;11.348;2022-07-21T03:03:41;8.30;;;5.30;;
70303;SDS011;57712;48.752;11.348;2022-07-21T03:06:08;8.55;;;5.45;;
70303;SDS011;57712;48.752;11.348;2022-07-21T03:08:35;7.53;;;5.13;;
70303;SDS011;57712;48.752;11.348;2022-07-21T03:11:01;7.03;;;4.43;;
70303;SDS011;57712;48.752;11.348;2022-07-21T03:13:29;8.73;;;5.38;;
70303;SDS011;57712;48.752;11.348;2022-07-21T03:15:55;8.07;;;5.17;;
70303;SDS011;57712;48.752;11.348;2022-07-21T03:18:22;7.47;;;4.63;;
70303;SDS011;57712;48.752;11.348;2022-07-21T03:20:49;8.57;;;4.60;;
70303;SDS011;57712;48.752;11.348;2022-07-21T03:23:15;8.90;;;4.78;;
70303;SDS011;57712;48.752;11.348;2022-07-21T03:25:42;7.93;;;4.95;;
70303;SDS011;57712;48.752;11.348;2022-07-21T03:28:08;8.70;;;5.00;;
70303;SDS011;57712;48.752;11.348;2022-07-21T03:30:35;8.90;;;4.93;;
70303;SDS011;57712;48.752;11.348;2022-07-21T03:33:02;8.63;;;4.97;;
70303;SDS011;57712;48.752;11.348;2022-07-21T03:35:29;8.38;;;4.97;;
70303;SDS011;57712;48.752;11.348;2022-07-21T03:37:57;9.15;;;5.45;;
70303;SDS011;57712;48.752;11.348;2022-07-21T03:40:26;9.53;;;5.47;;
70303;SDS011;57712;48.752;11.348;2022-07-21T03:42:56;8.65;;;5.82;;
70303;SDS011;57712;48.752;11.348;2022-07-21T03:45:24;9.77;;;5.80;;
70303;SDS011;57712;48.752;11.348;2022-07-21T03:47:51;10.10;;;5.93;;
70303;SDS011;57712;48.752;11.348;2022-07-21T03:50:18;9.00;;;5.93;;
70303;SDS011;57712;48.752;11.348;2022-07-21T03:52:45;9.53;;;6.33;;
70303;SDS011;57712;48.752;11.348;2022-07-21T03:55:12;8.43;;;5.85;;
70303;SDS011;57712;48.752;11.348;2022-07-21T03:57:49;9.88;;;6.10;;
70303;SDS011;57712;48.752;11.348;2022-07-21T04:00:18;9.23;;;5.22;;
70303;SDS011;57712;48.752;11.348;2022-07-21T04:02:56;9.30;;;6.13;;
70303;SDS011;57712;48.752;11.348;2022-07-21T04:05:23;10.43;;;6.30;;
70303;SDS011;57712;48.752;11.348;2022-07-21T04:07:51;10.82;;;6.93;;
70303;SDS011;57712;48.752;11.348;2022-07-21T04:10:19;12.38;;;7.97;;
70303;SDS011;57712;48.752;11.348;2022-07-21T04:12:48;14.98;;;8.85;;
70303;SDS011;57712;48.752;11.348;2022-07-21T04:15:15;12.63;;;8.60;;
70303;SDS011;57712;48.752;11.348;2022-07-21T04:17:43;14.33;;;9.60;;
70303;SDS011;57712;48.752;11.348;2022-07-21T04:20:10;14.80;;;9.27;;
70303;SDS011;57712;48.752;11.348;2022-07-21T04:22:38;14.27;;;9.02;;
70303;SDS011;57712;48.752;11.348;2022-07-21T04:25:05;16.42;;;9.90;;
70303;SDS011;57712;48.752;11.348;2022-07-21T04:27:33;15.73;;;9.52;;
70303;SDS011;57712;48.752;11.348;2022-07-21T04:30:00;14.20;;;9.20;;
70303;SDS011;57712;48.752;11.348;2022-07-21T04:32:28;13.45;;;9.07;;
70303;SDS011;57712;48.752;11.348;2022-07-21T04:34:54;17.70;;;9.63;;
70303;SDS011;57712;48.752;11.348;2022-07-21T04:37:21;14.93;;;9.70;;
70303;SDS011;57712;48.752;11.348;2022-07-21T04:39:48;14.82;;;9.20;;
70303;SDS011;57712;48.752;11.348;2022-07-21T04:42:18;15.70;;;8.80;;
70303;SDS011;57712;48.752;11.348;2022-07-21T04:44:46;12.52;;;8.63;;
70303;SDS011;57712;48.752;11.348;2022-07-21T04:47:13;13.35;;;9.32;;
70303;SDS011;57712;48.752;11.348;2022-07-21T04:49:40;13.98;;;9.43;;
70303;SDS011;57712;48.752;11.348;2022-07-21T04:52:06;14.38;;;9.00;;
70303;SDS011;57712;48.752;11.348;2022-07-21T04:54:33;13.87;;;8.60;;
70303;SDS011;57712;48.752;11.348;2022-07-21T04:56:59;13.15;;;8.25;;
70303;SDS011;57712;48.752;11.348;2022-07-21T04:59:29;14.13;;;9.27;;
70303;SDS011;57712;48.752;11.348;2022-07-21T05:01:56;14.05;;;9.15;;
70303;SDS011;57712;48.752;11.348;2022-07-21T05:04:23;15.27;;;9.98;;
70303;SDS011;57712;48.752;11.348;2022-07-21T05:06:50;16.20;;;9.83;;
70303;SDS011;57712;48.752;11.348;2022-07-21T05:09:16;13.57;;;9.95;;
70303;SDS011;57712;48.752;11.348;2022-07-21T05:11:43;14.70;;;10.15;;
70303;SDS011;57712;48.752;11.348;2022-07-21T05:14:10;14.50;;;10.25;;
70303;SDS011;57712;48.752;11.348;2022-07-21T05:16:40;17.40;;;10.70;;
70303;SDS011;57712;48.752;11.348;2022-07-21T05:19:07;13.70;;;9.57;;
70303;SDS011;57712;48.752;11.348;2022-07-21T05:21:34;15.07;;;10.80;;
70303;SDS011;57712;48.752;11.348;2022-07-21T05:24:00;15.40;;;10.95;;
70303;SDS011;57712;48.752;11.348;2022-07-21T05:26:27;14.70;;;10.10;;
70303;SDS011;57712;48.752;11.348;2022-07-21T05:28:53;16.95;;;11.90;;
70303;SDS011;57712;48.752;11.348;2022-07-21T05:31:21;15.70;;;11.20;;
70303;SDS011;57712;48.752;11.348;2022-07-21T05:33:47;16.30;;;11.68;;
70303;SDS011;57712;48.752;11.348;2022-07-21T05:36:14;16.77;;;12.07;;
70303;SDS011;57712;48.752;11.348;2022-07-21T05:38:40;18.15;;;12.15;;
70303;SDS011;57712;48.752;11.348;2022-07-21T05:41:07;16.75;;;11.70;;
70303;SDS011;57712;48.752;11.348;2022-07-21T05:43:33;18.07;;;13.03;;
70303;SDS011;57712;48.752;11.348;2022-07-21T05:46:00;17.80;;;12.93;;
70303;SDS011;57712;48.752;11.348;2022-07-21T05:48:27;19.80;;;12.80;;
70303;SDS011;57712;48.752;11.348;2022-07-21T05:50:53;18.17;;;12.77;;
70303;SDS011;57712;48.752;11.348;2022-07-21T05:53:20;20.40;;;13.57;;
70303;SDS011;57712;48.752;11.348;2022-07-21T05:55:46;19.37;;;13.67;;
70303;SDS011;57712;48.752;11.348;2022-07-21T05:58:13;18.05;;;12.60;;
70303;SDS011;57712;48.752;11.348;2022-07-21T06:00:41;17.02;;;13.55;;
70303;SDS011;57712;48.752;11.348;2022-07-21T06:03:08;17.50;;;12.70;;
70303;SDS011;57712;48.752;11.348;2022-07-21T06:05:38;18.65;;;13.20;;
70303;SDS011;57712;48.752;11.348;2022-07-21T06:08:05;18.83;;;13.23;;
70303;SDS011;57712;48.752;11.348;2022-07-21T06:10:31;17.92;;;13.55;;
70303;SDS011;57712;48.752;11.348;2022-07-21T06:12:59;18.35;;;13.32;;
70303;SDS011;57712;48.752;11.348;2022-07-21T06:15:29;17.70;;;13.07;;
70303;SDS011;57712;48.752;11.348;2022-07-21T06:17:59;18.10;;;13.70;;
70303;SDS011;57712;48.752;11.348;2022-07-21T06:20:25;20.10;;;14.53;;
70303;SDS011;57712;48.752;11.348;2022-07-21T06:22:52;19.63;;;13.73;;
70303;SDS011;57712;48.752;11.348;2022-07-21T06:25:19;20.63;;;14.60;;
70303;SDS011;57712;48.752;11.348;2022-07-21T06:27:47;18.08;;;14.15;;
70303;SDS011;57712;48.752;11.348;2022-07-21T06:30:13;19.25;;;13.80;;
70303;SDS011;57712;48.752;11.348;2022-07-21T06:32:39;19.53;;;14.03;;
70303;SDS011;57712;48.752;11.348;2022-07-21T06:35:07;21.70;;;14.07;;
70303;SDS011;57712;48.752;11.348;2022-07-21T06:37:34;20.08;;;14.60;;
70303;SDS011;57712;48.752;11.348;2022-07-21T06:40:00;19.80;;;14.75;;
70303;SDS011;57712;48.752;11.348;2022-07-21T06:42:27;19.23;;;14.30;;
70303;SDS011;57712;48.752;11.348;2022-07-21T06:44:54;20.40;;;14.87;;
70303;SDS011;57712;48.752;11.348;2022-07-21T06:47:20;19.83;;;15.18;;
70303;SDS011;57712;48.752;11.348;2022-07-21T06:49:47;20.25;;;14.77;;
70303;SDS011;57712;48.752;11.348;2022-07-21T06:52:14;19.38;;;14.32;;
70303;SDS011;57712;48.752;11.348;2022-07-21T06:54:41;19.52;;;14.85;;
70303;SDS011;57712;48.752;11.348;2022-07-21T06:57:07;17.43;;;13.53;;
70303;SDS011;57712;48.752;11.348;2022-07-21T06:59:34;20.25;;;14.77;;
70303;SDS011;57712;48.752;11.348;2022-07-21T07:02:01;17.55;;;13.45;;
70303;SDS011;57712;48.752;11.348;2022-07-21T07:04:28;17.70;;;13.07;;
70303;SDS011;57712;48.752;11.348;2022-07-21T07:06:54;22.02;;;13.68;;
70303;SDS011;57712;48.752;11.348;2022-07-21T07:09:21;20.07;;;14.57;;
70303;SDS011;57712;48.752;11.348;2022-07-21T07:11:49;18.33;;;13.63;;
70303;SDS011;57712;48.752;11.348;2022-07-21T07:14:38;18.77;;;14.05;;
70303;SDS011;57712;48.752;11.348;2022-07-21T07:17:05;18.75;;;13.75;;
70303;SDS011;57712;48.752;11.348;2022-07-21T07:19:32;18.85;;;14.43;;
70303;SDS011;57712;48.752;11.348;2022-07-21T07:21:58;19.10;;;14.00;;
70303;SDS011;57712;48.752;11.348;2022-07-21T07:24:25;19.13;;;14.05;;
70303;SDS011;57712;48.752;11.348;2022-07-21T07:26:52;18.73;;;14.23;;
70303;SDS011;57712;48.752;11.348;2022-07-21T07:29:18;19.67;;;14.25;;
70303;SDS011;57712;48.752;11.348;2022-07-21T07:31:45;18.63;;;15.07;;
70303;SDS011;57712;48.752;11.348;2022-07-21T07:34:11;20.00;;;14.73;;
70303;SDS011;57712;48.752;11.348;2022-07-21T07:36:38;19.73;;;14.25;;
70303;SDS011;57712;48.752;11.348;2022-07-21T07:39:10;20.73;;;15.57;;
70303;SDS011;57712;48.752;11.348;2022-07-21T07:41:36;19.52;;;14.77;;
70303;SDS011;57712;48.752;11.348;2022-07-21T07:44:03;22.08;;;15.25;;
70303;SDS011;57712;48.752;11.348;2022-07-21T07:46:30;20.43;;;15.10;;
70303;SDS011;57712;48.752;11.348;2022-07-21T07:48:56;21.60;;;15.88;;
70303;SDS011;57712;48.752;11.348;2022-07-21T07:51:30;21.90;;;16.58;;
70303;SDS011;57712;48.752;11.348;2022-07-21T07:53:57;21.95;;;16.17;;
70303;SDS011;57712;48.752;11.348;2022-07-21T07:56:23;20.65;;;15.60;;
70303;SDS011;57712;48.752;11.348;2022-07-21T07:58:52;21.63;;;15.97;;
70303;SDS011;57712;48.752;11.348;2022-07-21T08:01:19;21.42;;;16.38;;
70303;SDS011;57712;48.752;11.348;2022-07-21T08:03:46;23.75;;;16.95;;
70303;SDS011;57712;48.752;11.348;2022-07-21T08:06:12;22.40;;;16.88;;
70303;SDS011;57712;48.752;11.348;2022-07-21T08:08:39;22.73;;;16.95;;
70303;SDS011;57712;48.752;11.348;2022-07-21T08:11:06;22.97;;;16.70;;
70303;SDS011;57712;48.752;11.348;2022-07-21T08:13:32;23.73;;;17.70;;
70303;SDS011;57712;48.752;11.348;2022-07-21T08:15:59;23.55;;;16.98;;
70303;SDS011;57712;48.752;11.348;2022-07-21T08:18:25;21.83;;;17.50;;
70303;SDS011;57712;48.752;11.348;2022-07-21T08:20:52;23.98;;;17.55;;
70303;SDS011;57712;48.752;11.348;2022-07-21T08:23:19;21.40;;;16.50;;
70303;SDS011;57712;48.752;11.348;2022-07-21T08:25:46;22.15;;;16.60;;
70303;SDS011;57712;48.752;11.348;2022-07-21T08:28:12;23.13;;;16.88;;
70303;SDS011;57712;48.752;11.348;2022-07-21T08:30:39;20.85;;;15.63;;
70303;SDS011;57712;48.752;11.348;2022-07-21T08:33:05;25.52;;;18.10;;
70303;SDS011;57712;48.752;11.348;2022-07-21T08:35:32;24.93;;;16.20;;
70303;SDS011;57712;48.752;11.348;2022-07-21T08:38:00;22.90;;;15.88;;
70303;SDS011;57712;48.752;11.348;2022-07-21T08:40:31;24.85;;;16.75;;
70303;SDS011;57712;48.752;11.348;2022-07-21T08:42:59;24.83;;;17.02;;
70303;SDS011;57712;48.752;11.348;2022-07-21T08:45:26;24.10;;;17.55;;
70303;SDS011;57712;48.752;11.348;2022-07-21T08:47:55;24.50;;;17.70;;
70303;SDS011;57712;48.752;11.348;2022-07-21T08:50:25;25.00;;;17.58;;
70303;SDS011;57712;48.752;11.348;2022-07-21T08:52:53;25.95;;;19.15;;
70303;SDS011;57712;48.752;11.348;2022-07-21T08:55:29;27.13;;;19.92;;
70303;SDS011;57712;48.752;11.348;2022-07-21T08:57:57;27.25;;;19.92;;
70303;SDS011;57712;48.752;11.348;2022-07-21T09:00:24;26.57;;;19.73;;
70303;SDS011;57712;48.752;11.348;2022-07-21T09:03:37;25.25;;;19.55;;
70303;SDS011;57712;48.752;11.348;2022-07-21T09:05:38;26.65;;;19.02;;
70303;SDS011;57712;48.752;11.348;2022-07-21T09:08:05;24.13;;;17.58;;
70303;SDS011;57712;48.752;11.348;2022-07-21T09:10:33;23.55;;;17.73;;
70303;SDS011;57712;48.752;11.348;2022-07-21T09:13:02;26.60;;;18.43;;
70303;SDS011;57712;48.752;11.348;2022-07-21T09:15:32;23.83;;;19.02;;
70303;SDS011;57712;48.752;11.348;2022-07-21T09:18:12;24.73;;;19.58;;
70303;SDS011;57712;48.752;11.348;2022-07-21T09:20:46;25.52;;;20.38;;
70303;SDS011;57712;48.752;11.348;2022-07-21T09:23:15;24.42;;;19.45;;
70303;SDS011;57712;48.752;11.348;2022-07-21T09:25:46;25.27;;;19.10;;
70303;SDS011;57712;48.752;11.348;2022-07-21T09:28:18;25.65;;;19.42;;
70303;SDS011;57712;48.752;11.348;2022-07-21T09:33:27;25.95;;;19.23;;
70303;SDS011;57712;48.752;11.348;2022-07-21T09:36:12;25.95;;;20.00;;
70303;SDS011;57712;48.752;11.348;2022-07-21T09:38:45;29.30;;;21.00;;
70303;SDS011;57712;48.752;11.348;2022-07-21T09:41:18;28.58;;;19.65;;
70303;SDS011;57712;48.752;11.348;2022-07-21T09:46:18;28.65;;;20.30;;
70303;SDS011;57712;48.752;11.348;2022-07-21T09:48:48;28.55;;;20.15;;
70303;SDS011;57712;48.752;11.348;2022-07-21T09:51:37;27.07;;;20.03;;
70303;SDS011;57712;48.752;11.348;2022-07-21T09:56:36;26.67;;;20.38;;
70303;SDS011;57712;48.752;11.348;2022-07-21T09:59:07;28.35;;;20.85;;
70303;SDS011;57712;48.752;11.348;2022-07-21T10:01:36;27.13;;;21.50;;
70303;SDS011;57712;48.752;11.348;2022-07-21T10:04:04;31.03;;;21.90;;
70303;SDS011;57712;48.752;11.348;2022-07-21T10:06:32;29.55;;;21.00;;
70303;SDS011;57712;48.752;11.348;2022-07-21T10:09:03;27.15;;;21.40;;
70303;SDS011;57712;48.752;11.348;2022-07-21T10:11:32;28.02;;;21.85;;
70303;SDS011;57712;48.752;11.348;2022-07-21T10:13:59;28.00;;;21.83;;
70303;SDS011;57712;48.752;11.348;2022-07-21T10:16:26;29.20;;;22.37;;
70303;SDS011;57712;48.752;11.348;2022-07-21T10:24:23;24.98;;;20.30;;
70303;SDS011;57712;48.752;11.348;2022-07-21T10:27:07;27.10;;;20.27;;
70303;SDS011;57712;48.752;11.348;2022-07-21T10:29:55;30.27;;;21.33;;
70303;SDS011;57712;48.752;11.348;2022-07-21T10:32:36;25.63;;;19.90;;
70303;SDS011;57712;48.752;11.348;2022-07-21T10:37:55;27.38;;;20.95;;
70303;SDS011;57712;48.752;11.348;2022-07-21T10:45:36;26.55;;;20.10;;
70303;SDS011;57712;48.752;11.348;2022-07-21T10:48:05;25.67;;;21.05;;
70303;SDS011;57712;48.752;11.348;2022-07-21T10:50:58;27.48;;;20.83;;
70303;SDS011;57712;48.752;11.348;2022-07-21T10:53:25;24.98;;;21.02;;
70303;SDS011;57712;48.752;11.348;2022-07-21T10:55:52;25.77;;;19.50;;
70303;SDS011;57712;48.752;11.348;2022-07-21T10:58:31;26.92;;;21.00;;
70303;SDS011;57712;48.752;11.348;2022-07-21T11:03:36;25.67;;;19.45;;
70303;SDS011;57712;48.752;11.348;2022-07-21T11:11:31;26.65;;;20.50;;
70303;SDS011;57712;48.752;11.348;2022-07-21T11:14:03;24.35;;;20.23;;
70303;SDS011;57712;48.752;11.348;2022-07-21T11:22:11;24.50;;;19.20;;
70303;SDS011;57712;48.752;11.348;2022-07-21T11:24:39;23.80;;;19.45;;
70303;SDS011;57712;48.752;11.348;2022-07-21T11:27:08;23.08;;;19.88;;
70303;SDS011;57712;48.752;11.348;2022-07-21T11:29:38;23.05;;;18.75;;
70303;SDS011;57712;48.752;11.348;2022-07-21T11:32:07;21.95;;;17.23;;
70303;SDS011;57712;48.752;11.348;2022-07-21T11:37:11;22.48;;;18.90;;
70303;SDS011;57712;48.752;11.348;2022-07-21T11:40:00;22.13;;;18.08;;
70303;SDS011;57712;48.752;11.348;2022-07-21T11:42:28;20.38;;;17.33;;
70303;SDS011;57712;48.752;11.348;2022-07-21T11:44:57;22.13;;;19.05;;
70303;SDS011;57712;48.752;11.348;2022-07-21T11:47:24;23.33;;;18.17;;
70303;SDS011;57712;48.752;11.348;2022-07-21T11:49:56;24.40;;;18.60;;
70303;SDS011;57712;48.752;11.348;2022-07-21T11:52:27;22.30;;;17.58;;
70303;SDS011;57712;48.752;11.348;2022-07-21T11:54:55;19.92;;;16.88;;
70303;SDS011;57712;48.752;11.348;2022-07-21T11:57:24;21.35;;;17.65;;
70303;SDS011;57712;48.752;11.348;2022-07-21T11:59:52;20.17;;;15.90;;
70303;SDS011;57712;48.752;11.348;2022-07-21T12:02:21;21.75;;;16.70;;
70303;SDS011;57712;48.752;11.348;2022-07-21T12:04:57;21.17;;;16.67;;
70303;SDS011;57712;48.752;11.348;2022-07-21T12:07:30;18.38;;;15.00;;
70303;SDS011;57712;48.752;11.348;2022-07-21T12:10:05;19.02;;;15.77;;
70303;SDS011;57712;48.752;11.348;2022-07-21T12:12:44;17.27;;;14.07;;
70303;SDS011;57712;48.752;11.348;2022-07-21T12:17:46;16.23;;;14.40;;
70303;SDS011;57712;48.752;11.348;2022-07-21T12:20:23;16.95;;;14.02;;
70303;SDS011;57712;48.752;11.348;2022-07-21T12:22:52;18.33;;;14.15;;
70303;SDS011;57712;48.752;11.348;2022-07-21T12:25:30;17.10;;;13.33;;
70303;SDS011;57712;48.752;11.348;2022-07-21T12:28:01;17.17;;;13.52;;
70303;SDS011;57712;48.752;11.348;2022-07-21T12:30:30;18.00;;;15.00;;
70303;SDS011;57712;48.752;11.348;2022-07-21T12:33:11;17.63;;;15.52;;
70303;SDS011;57712;48.752;11.348;2022-07-21T12:35:39;18.70;;;15.57;;
70303;SDS011;57712;48.752;11.348;2022-07-21T12:38:10;18.97;;;14.27;;
70303;SDS011;57712;48.752;11.348;2022-07-21T12:40:40;18.70;;;14.68;;
70303;SDS011;57712;48.752;11.348;2022-07-21T12:43:28;18.88;;;15.25;;
70303;SDS011;57712;48.752;11.348;2022-07-21T12:45:58;20.30;;;16.38;;
70303;SDS011;57712;48.752;11.348;2022-07-21T12:48:31;18.30;;;14.85;;
70303;SDS011;57712;48.752;11.348;2022-07-21T12:51:15;16.87;;;14.33;;
70303;SDS011;57712;48.752;11.348;2022-07-21T12:56:19;17.33;;;14.77;;
70303;SDS011;57712;48.752;11.348;2022-07-21T12:58:47;18.45;;;15.73;;
70303;SDS011;57712;48.752;11.348;2022-07-21T13:01:15;17.35;;;15.45;;
70303;SDS011;57712;48.752;11.348;2022-07-21T13:03:43;16.27;;;13.80;;
70303;SDS011;57712;48.752;11.348;2022-07-21T13:06:10;17.10;;;14.75;;
70303;SDS011;57712;48.752;11.348;2022-07-21T13:08:37;16.63;;;13.80;;
70303;SDS011;57712;48.752;11.348;2022-07-21T13:11:05;16.90;;;13.85;;
70303;SDS011;57712;48.752;11.348;2022-07-21T13:13:32;16.52;;;13.85;;
70303;SDS011;57712;48.752;11.348;2022-07-21T13:15:59;15.57;;;12.57;;
70303;SDS011;57712;48.752;11.348;2022-07-21T13:18:26;16.48;;;13.10;;
70303;SDS011;57712;48.752;11.348;2022-07-21T13:20:53;15.35;;;12.63;;
70303;SDS011;57712;48.752;11.348;2022-07-21T13:23:20;16.13;;;13.35;;
70303;SDS011;57712;48.752;11.348;2022-07-21T13:25:47;15.30;;;13.35;;
70303;SDS011;57712;48.752;11.348;2022-07-21T13:28:29;15.37;;;12.53;;
70303;SDS011;57712;48.752;11.348;2022-07-21T13:31:02;16.02;;;13.13;;
70303;SDS011;57712;48.752;11.348;2022-07-21T13:33:29;16.08;;;13.13;;
70303;SDS011;57712;48.752;11.348;2022-07-21T13:35:56;17.27;;;13.07;;
70303;SDS011;57712;48.752;11.348;2022-07-21T13:38:23;16.42;;;14.15;;
70303;SDS011;57712;48.752;11.348;2022-07-21T13:40:49;15.70;;;11.93;;
70303;SDS011;57712;48.752;11.348;2022-07-21T13:43:36;15.27;;;12.32;;
70303;SDS011;57712;48.752;11.348;2022-07-21T13:46:05;13.80;;;11.88;;
70303;SDS011;57712;48.752;11.348;2022-07-21T13:48:32;16.30;;;13.93;;
70303;SDS011;57712;48.752;11.348;2022-07-21T13:51:08;15.75;;;13.40;;
70303;SDS011;57712;48.752;11.348;2022-07-21T13:53:35;16.73;;;12.43;;
70303;SDS011;57712;48.752;11.348;2022-07-21T13:56:02;15.50;;;12.02;;
70303;SDS011;57712;48.752;11.348;2022-07-21T13:58:30;14.52;;;12.95;;
70303;SDS011;57712;48.752;11.348;2022-07-21T14:00:56;14.50;;;12.55;;
70303;SDS011;57712;48.752;11.348;2022-07-21T14:03:23;14.02;;;12.32;;
70303;SDS011;57712;48.752;11.348;2022-07-21T14:05:50;15.70;;;12.27;;
70303;SDS011;57712;48.752;11.348;2022-07-21T14:08:16;14.70;;;12.10;;
70303;SDS011;57712;48.752;11.348;2022-07-21T14:10:43;15.23;;;12.27;;
70303;SDS011;57712;48.752;11.348;2022-07-21T14:13:11;14.20;;;11.35;;
70303;SDS011;57712;48.752;11.348;2022-07-21T14:15:38;14.43;;;11.45;;
70303;SDS011;57712;48.752;11.348;2022-07-21T14:18:04;13.10;;;11.13;;
70303;SDS011;57712;48.752;11.348;2022-07-21T14:20:31;14.55;;;12.07;;
70303;SDS011;57712;48.752;11.348;2022-07-21T14:22:57;15.07;;;12.02;;
70303;SDS011;57712;48.752;11.348;2022-07-21T14:25:24;15.45;;;12.82;;
70303;SDS011;57712;48.752;11.348;2022-07-21T14:27:54;14.77;;;11.50;;
70303;SDS011;57712;48.752;11.348;2022-07-21T14:30:24;12.87;;;11.27;;
70303;SDS011;57712;48.752;11.348;2022-07-21T14:32:53;12.80;;;10.57;;
70303;SDS011;57712;48.752;11.348;2022-07-21T14:35:20;14.82;;;11.55;;
70303;SDS011;57712;48.752;11.348;2022-07-21T14:37:48;15.35;;;11.65;;
70303;SDS011;57712;48.752;11.348;2022-07-21T14:40:16;12.85;;;10.85;;
70303;SDS011;57712;48.752;11.348;2022-07-21T14:42:44;12.73;;;10.40;;
70303;SDS011;57712;48.752;11.348;2022-07-21T14:45:12;12.65;;;10.88;;
70303;SDS011;57712;48.752;11.348;2022-07-21T14:47:47;12.85;;;10.98;;
70303;SDS011;57712;48.752;11.348;2022-07-21T14:50:18;13.27;;;11.05;;
70303;SDS011;57712;48.752;11.348;2022-07-21T14:52:52;13.38;;;10.93;;
70303;SDS011;57712;48.752;11.348;2022-07-21T14:55:21;12.10;;;10.80;;
70303;SDS011;57712;48.752;11.348;2022-07-21T14:57:49;13.00;;;10.93;;
70303;SDS011;57712;48.752;11.348;2022-07-21T15:00:17;14.18;;;11.55;;
70303;SDS011;57712;48.752;11.348;2022-07-21T15:02:44;12.85;;;10.43;;
70303;SDS011;57712;48.752;11.348;2022-07-21T15:05:11;14.15;;;10.20;;
70303;SDS011;57712;48.752;11.348;2022-07-21T15:07:38;12.33;;;9.93;;